sensor_id;sensor_type;location;lat;lon;timestamp;P1;durP1;ratioP1;P2;durP2;ratioP2
16998;SDS011;10211;49.476;11.010;2023-03-21T00:01:05;2.73;;;2.47;;
16998;SDS011;10211;49.476;11.010;2023-03-21T00:03:33;2.87;;;2.30;;
16998;SDS011;10211;49.476;11.010;2023-03-21T00:06:03;2.47;;;2.27;;
16998;SDS011;10211;49.476;11.010;2023-03-21T00:08:30;3.70;;;2.50;;
16998;SDS011;10211;49.476;11.010;2023-03-21T00:10:58;3.13;;;2.20;;
16998;SDS011;10211;49.476;11.010;2023-03-21T00:13:26;4.47;;;2.13;;
16998;SDS011;10211;49.476;11.010;2023-03-21T00:15:56;4.60;;;3.23;;
16998;SDS011;10211;49.476;11.010;2023-03-21T00:18:23;5.47;;;3.57;;
16998;SDS011;10211;49.476;11.010;2023-03-21T00:20:58;5.13;;;3.23;;
16998;SDS011;10211;49.476;11.010;2023-03-21T00:23:27;4.60;;;3.10;;
16998;SDS011;10211;49.476;11.010;2023-03-21T00:25:57;5.17;;;3.27;;
16998;SDS011;10211;49.476;11.010;2023-03-21T00:28:24;4.17;;;3.10;;
16998;SDS011;10211;49.476;11.010;2023-03-21T00:30:55;2.97;;;2.67;;
16998;SDS011;10211;49.476;11.010;2023-03-21T00:33:23;5.73;;;3.00;;
16998;SDS011;10211;49.476;11.010;2023-03-21T00:35:50;4.13;;;2.80;;
16998;SDS011;10211;49.476;11.010;2023-03-21T00:38:18;4.10;;;3.33;;
16998;SDS011;10211;49.476;11.010;2023-03-21T00:40:46;4.27;;;2.90;;
16998;SDS011;10211;49.476;11.010;2023-03-21T00:43:13;3.80;;;2.93;;
16998;SDS011;10211;49.476;11.010;2023-03-21T00:45:41;4.63;;;2.60;;
16998;SDS011;10211;49.476;11.010;2023-03-21T00:48:08;3.13;;;2.50;;
16998;SDS011;10211;49.476;11.010;2023-03-21T00:50:35;3.73;;;2.87;;
16998;SDS011;10211;49.476;11.010;2023-03-21T00:53:02;5.17;;;3.43;;
16998;SDS011;10211;49.476;11.010;2023-03-21T00:55:31;3.03;;;2.40;;
16998;SDS011;10211;49.476;11.010;2023-03-21T00:57:58;3.03;;;2.60;;
16998;SDS011;10211;49.476;11.010;2023-03-21T01:00:25;7.87;;;2.70;;
16998;SDS011;10211;49.476;11.010;2023-03-21T01:02:52;3.57;;;2.67;;
16998;SDS011;10211;49.476;11.010;2023-03-21T01:05:22;4.53;;;2.87;;
16998;SDS011;10211;49.476;11.010;2023-03-21T01:08:04;2.70;;;2.10;;
16998;SDS011;10211;49.476;11.010;2023-03-21T01:10:32;2.60;;;2.40;;
16998;SDS011;10211;49.476;11.010;2023-03-21T01:12:58;4.60;;;3.50;;
16998;SDS011;10211;49.476;11.010;2023-03-21T01:15:25;3.30;;;2.47;;
16998;SDS011;10211;49.476;11.010;2023-03-21T01:17:52;3.77;;;2.47;;
16998;SDS011;10211;49.476;11.010;2023-03-21T01:20:18;2.80;;;2.50;;
16998;SDS011;10211;49.476;11.010;2023-03-21T01:22:45;2.43;;;2.07;;
16998;SDS011;10211;49.476;11.010;2023-03-21T01:25:12;5.70;;;3.27;;
16998;SDS011;10211;49.476;11.010;2023-03-21T01:27:41;3.50;;;2.30;;
16998;SDS011;10211;49.476;11.010;2023-03-21T01:30:08;3.00;;;2.53;;
16998;SDS011;10211;49.476;11.010;2023-03-21T01:32:36;2.37;;;2.10;;
16998;SDS011;10211;49.476;11.010;2023-03-21T01:35:03;4.37;;;2.47;;
16998;SDS011;10211;49.476;11.010;2023-03-21T01:37:30;2.70;;;2.33;;
16998;SDS011;10211;49.476;11.010;2023-03-21T01:39:57;6.20;;;2.80;;
16998;SDS011;10211;49.476;11.010;2023-03-21T01:42:24;3.67;;;2.47;;
16998;SDS011;10211;49.476;11.010;2023-03-21T01:44:53;2.80;;;1.93;;
16998;SDS011;10211;49.476;11.010;2023-03-21T01:47:21;4.23;;;2.60;;
16998;SDS011;10211;49.476;11.010;2023-03-21T01:49:50;2.67;;;2.47;;
16998;SDS011;10211;49.476;11.010;2023-03-21T01:52:20;3.70;;;2.40;;
16998;SDS011;10211;49.476;11.010;2023-03-21T01:54:49;2.57;;;2.33;;
16998;SDS011;10211;49.476;11.010;2023-03-21T01:57:21;2.13;;;2.00;;
16998;SDS011;10211;49.476;11.010;2023-03-21T01:59:58;4.20;;;2.47;;
16998;SDS011;10211;49.476;11.010;2023-03-21T02:02:36;2.93;;;1.90;;
16998;SDS011;10211;49.476;11.010;2023-03-21T02:05:20;3.97;;;2.30;;
16998;SDS011;10211;49.476;11.010;2023-03-21T02:07:52;2.97;;;1.97;;
16998;SDS011;10211;49.476;11.010;2023-03-21T02:10:19;4.30;;;2.20;;
16998;SDS011;10211;49.476;11.010;2023-03-21T02:12:46;2.43;;;2.13;;
16998;SDS011;10211;49.476;11.010;2023-03-21T02:15:14;2.93;;;2.27;;
16998;SDS011;10211;49.476;11.010;2023-03-21T02:17:42;3.27;;;2.10;;
16998;SDS011;10211;49.476;11.010;2023-03-21T02:20:19;3.67;;;2.10;;
16998;SDS011;10211;49.476;11.010;2023-03-21T02:23:09;3.90;;;2.17;;
16998;SDS011;10211;49.476;11.010;2023-03-21T02:29:06;3.30;;;2.60;;
16998;SDS011;10211;49.476;11.010;2023-03-21T02:31:41;5.57;;;2.60;;
16998;SDS011;10211;49.476;11.010;2023-03-21T02:34:31;3.53;;;2.23;;
16998;SDS011;10211;49.476;11.010;2023-03-21T02:37:20;3.27;;;2.33;;
16998;SDS011;10211;49.476;11.010;2023-03-21T02:39:51;2.83;;;2.53;;
16998;SDS011;10211;49.476;11.010;2023-03-21T02:42:26;3.60;;;2.80;;
16998;SDS011;10211;49.476;11.010;2023-03-21T02:45:01;2.60;;;2.40;;
16998;SDS011;10211;49.476;11.010;2023-03-21T02:47:33;3.70;;;2.17;;
16998;SDS011;10211;49.476;11.010;2023-03-21T02:50:09;3.50;;;2.27;;
16998;SDS011;10211;49.476;11.010;2023-03-21T02:52:39;4.07;;;2.53;;
16998;SDS011;10211;49.476;11.010;2023-03-21T02:55:10;6.70;;;2.60;;
16998;SDS011;10211;49.476;11.010;2023-03-21T02:57:40;4.10;;;2.77;;
16998;SDS011;10211;49.476;11.010;2023-03-21T03:00:09;4.03;;;2.50;;
16998;SDS011;10211;49.476;11.010;2023-03-21T03:02:38;2.90;;;2.60;;
16998;SDS011;10211;49.476;11.010;2023-03-21T03:05:13;3.40;;;2.37;;
16998;SDS011;10211;49.476;11.010;2023-03-21T03:07:45;4.27;;;2.63;;
16998;SDS011;10211;49.476;11.010;2023-03-21T03:10:26;3.30;;;2.27;;
16998;SDS011;10211;49.476;11.010;2023-03-21T03:13:07;2.80;;;2.50;;
16998;SDS011;10211;49.476;11.010;2023-03-21T03:15:46;4.73;;;2.43;;
16998;SDS011;10211;49.476;11.010;2023-03-21T03:18:23;5.20;;;2.23;;
16998;SDS011;10211;49.476;11.010;2023-03-21T03:20:59;5.20;;;2.63;;
16998;SDS011;10211;49.476;11.010;2023-03-21T03:23:33;6.20;;;2.83;;
16998;SDS011;10211;49.476;11.010;2023-03-21T03:26:08;5.10;;;2.60;;
16998;SDS011;10211;49.476;11.010;2023-03-21T03:28:40;3.63;;;2.50;;
16998;SDS011;10211;49.476;11.010;2023-03-21T03:31:10;2.67;;;2.47;;
16998;SDS011;10211;49.476;11.010;2023-03-21T03:33:39;3.83;;;3.10;;
16998;SDS011;10211;49.476;11.010;2023-03-21T03:36:12;4.30;;;2.73;;
16998;SDS011;10211;49.476;11.010;2023-03-21T03:38:43;5.23;;;2.83;;
16998;SDS011;10211;49.476;11.010;2023-03-21T03:41:13;5.03;;;2.83;;
16998;SDS011;10211;49.476;11.010;2023-03-21T03:43:44;4.47;;;2.70;;
16998;SDS011;10211;49.476;11.010;2023-03-21T03:46:16;3.13;;;2.63;;
16998;SDS011;10211;49.476;11.010;2023-03-21T03:48:46;3.23;;;2.83;;
16998;SDS011;10211;49.476;11.010;2023-03-21T03:51:19;3.67;;;2.57;;
16998;SDS011;10211;49.476;11.010;2023-03-21T03:53:51;3.90;;;2.77;;
16998;SDS011;10211;49.476;11.010;2023-03-21T03:56:20;5.63;;;2.80;;
16998;SDS011;10211;49.476;11.010;2023-03-21T03:58:49;3.53;;;3.07;;
16998;SDS011;10211;49.476;11.010;2023-03-21T04:01:16;3.20;;;2.87;;
16998;SDS011;10211;49.476;11.010;2023-03-21T04:03:43;5.00;;;2.70;;
16998;SDS011;10211;49.476;11.010;2023-03-21T04:06:13;3.87;;;3.07;;
16998;SDS011;10211;49.476;11.010;2023-03-21T04:08:40;4.00;;;2.97;;
16998;SDS011;10211;49.476;11.010;2023-03-21T04:11:08;3.90;;;2.90;;
16998;SDS011;10211;49.476;11.010;2023-03-21T04:13:35;4.77;;;2.60;;
16998;SDS011;10211;49.476;11.010;2023-03-21T04:16:02;3.23;;;2.83;;
16998;SDS011;10211;49.476;11.010;2023-03-21T04:18:29;10.67;;;2.87;;
16998;SDS011;10211;49.476;11.010;2023-03-21T04:20:56;6.23;;;3.30;;
16998;SDS011;10211;49.476;11.010;2023-03-21T04:23:23;4.93;;;3.37;;
16998;SDS011;10211;49.476;11.010;2023-03-21T04:25:50;4.07;;;2.90;;
16998;SDS011;10211;49.476;11.010;2023-03-21T04:28:19;3.67;;;3.33;;
16998;SDS011;10211;49.476;11.010;2023-03-21T04:30:47;3.97;;;2.80;;
16998;SDS011;10211;49.476;11.010;2023-03-21T04:33:15;8.40;;;3.30;;
16998;SDS011;10211;49.476;11.010;2023-03-21T04:35:42;8.67;;;3.60;;
16998;SDS011;10211;49.476;11.010;2023-03-21T04:38:09;3.33;;;3.00;;
16998;SDS011;10211;49.476;11.010;2023-03-21T04:40:36;3.60;;;3.30;;
16998;SDS011;10211;49.476;11.010;2023-03-21T04:43:03;3.97;;;3.10;;
16998;SDS011;10211;49.476;11.010;2023-03-21T04:45:31;4.10;;;3.10;;
16998;SDS011;10211;49.476;11.010;2023-03-21T04:47:58;3.73;;;3.33;;
16998;SDS011;10211;49.476;11.010;2023-03-21T04:50:24;4.43;;;3.47;;
16998;SDS011;10211;49.476;11.010;2023-03-21T04:52:51;3.67;;;3.20;;
16998;SDS011;10211;49.476;11.010;2023-03-21T04:55:18;3.17;;;2.83;;
16998;SDS011;10211;49.476;11.010;2023-03-21T04:57:45;3.63;;;3.20;;
16998;SDS011;10211;49.476;11.010;2023-03-21T05:00:13;7.50;;;3.30;;
16998;SDS011;10211;49.476;11.010;2023-03-21T05:02:42;4.40;;;3.00;;
16998;SDS011;10211;49.476;11.010;2023-03-21T05:05:09;4.10;;;3.37;;
16998;SDS011;10211;49.476;11.010;2023-03-21T05:07:36;5.07;;;3.20;;
16998;SDS011;10211;49.476;11.010;2023-03-21T05:10:04;3.63;;;3.33;;
16998;SDS011;10211;49.476;11.010;2023-03-21T05:12:32;3.63;;;2.97;;
16998;SDS011;10211;49.476;11.010;2023-03-21T05:14:59;3.53;;;2.67;;
16998;SDS011;10211;49.476;11.010;2023-03-21T05:17:25;4.27;;;3.00;;
16998;SDS011;10211;49.476;11.010;2023-03-21T05:19:53;4.37;;;3.47;;
16998;SDS011;10211;49.476;11.010;2023-03-21T05:22:21;4.63;;;3.53;;
16998;SDS011;10211;49.476;11.010;2023-03-21T05:24:50;7.57;;;4.07;;
16998;SDS011;10211;49.476;11.010;2023-03-21T05:27:19;4.27;;;3.57;;
16998;SDS011;10211;49.476;11.010;2023-03-21T05:30:00;9.43;;;3.73;;
16998;SDS011;10211;49.476;11.010;2023-03-21T05:32:29;4.47;;;3.63;;
16998;SDS011;10211;49.476;11.010;2023-03-21T05:34:57;5.37;;;3.43;;
16998;SDS011;10211;49.476;11.010;2023-03-21T05:37:24;7.03;;;3.47;;
16998;SDS011;10211;49.476;11.010;2023-03-21T05:39:51;4.53;;;3.43;;
16998;SDS011;10211;49.476;11.010;2023-03-21T05:42:18;6.47;;;3.93;;
16998;SDS011;10211;49.476;11.010;2023-03-21T05:44:45;4.80;;;3.37;;
16998;SDS011;10211;49.476;11.010;2023-03-21T05:47:12;6.13;;;3.70;;
16998;SDS011;10211;49.476;11.010;2023-03-21T05:49:40;4.10;;;3.63;;
16998;SDS011;10211;49.476;11.010;2023-03-21T05:52:08;4.40;;;3.77;;
16998;SDS011;10211;49.476;11.010;2023-03-21T05:54:35;5.60;;;4.17;;
16998;SDS011;10211;49.476;11.010;2023-03-21T05:57:02;4.53;;;3.37;;
16998;SDS011;10211;49.476;11.010;2023-03-21T05:59:29;7.23;;;4.23;;
16998;SDS011;10211;49.476;11.010;2023-03-21T06:01:56;4.07;;;3.50;;
16998;SDS011;10211;49.476;11.010;2023-03-21T06:04:23;4.27;;;3.87;;
16998;SDS011;10211;49.476;11.010;2023-03-21T06:06:50;4.10;;;3.03;;
16998;SDS011;10211;49.476;11.010;2023-03-21T06:09:19;5.23;;;4.10;;
16998;SDS011;10211;49.476;11.010;2023-03-21T06:11:46;4.23;;;3.50;;
16998;SDS011;10211;49.476;11.010;2023-03-21T06:14:15;6.17;;;3.23;;
16998;SDS011;10211;49.476;11.010;2023-03-21T06:16:42;5.60;;;3.50;;
16998;SDS011;10211;49.476;11.010;2023-03-21T06:19:09;5.57;;;3.80;;
16998;SDS011;10211;49.476;11.010;2023-03-21T06:21:36;5.17;;;3.03;;
16998;SDS011;10211;49.476;11.010;2023-03-21T06:24:03;6.73;;;3.60;;
16998;SDS011;10211;49.476;11.010;2023-03-21T06:26:31;4.63;;;3.53;;
16998;SDS011;10211;49.476;11.010;2023-03-21T06:28:58;5.57;;;4.13;;
16998;SDS011;10211;49.476;11.010;2023-03-21T06:31:24;5.63;;;3.20;;
16998;SDS011;10211;49.476;11.010;2023-03-21T06:33:51;8.43;;;3.73;;
16998;SDS011;10211;49.476;11.010;2023-03-21T06:36:18;5.70;;;3.30;;
16998;SDS011;10211;49.476;11.010;2023-03-21T06:38:45;4.17;;;3.07;;
16998;SDS011;10211;49.476;11.010;2023-03-21T06:41:12;6.90;;;3.20;;
16998;SDS011;10211;49.476;11.010;2023-03-21T06:43:41;5.70;;;3.20;;
16998;SDS011;10211;49.476;11.010;2023-03-21T06:46:08;8.87;;;2.90;;
16998;SDS011;10211;49.476;11.010;2023-03-21T06:48:35;4.90;;;3.17;;
16998;SDS011;10211;49.476;11.010;2023-03-21T06:51:08;4.43;;;2.83;;
16998;SDS011;10211;49.476;11.010;2023-03-21T06:53:36;8.20;;;3.43;;
16998;SDS011;10211;49.476;11.010;2023-03-21T06:56:03;3.80;;;3.13;;
16998;SDS011;10211;49.476;11.010;2023-03-21T06:58:30;3.80;;;3.03;;
16998;SDS011;10211;49.476;11.010;2023-03-21T07:00:58;7.47;;;3.13;;
16998;SDS011;10211;49.476;11.010;2023-03-21T07:03:25;6.90;;;3.10;;
16998;SDS011;10211;49.476;11.010;2023-03-21T07:05:52;4.30;;;3.40;;
16998;SDS011;10211;49.476;11.010;2023-03-21T07:08:20;7.20;;;3.47;;
16998;SDS011;10211;49.476;11.010;2023-03-21T07:10:47;5.27;;;3.17;;
16998;SDS011;10211;49.476;11.010;2023-03-21T07:13:14;4.67;;;3.10;;
16998;SDS011;10211;49.476;11.010;2023-03-21T07:15:41;4.37;;;3.13;;
16998;SDS011;10211;49.476;11.010;2023-03-21T07:18:09;4.40;;;2.90;;
16998;SDS011;10211;49.476;11.010;2023-03-21T07:20:35;3.07;;;2.73;;
16998;SDS011;10211;49.476;11.010;2023-03-21T07:23:03;5.17;;;3.30;;
16998;SDS011;10211;49.476;11.010;2023-03-21T07:25:30;2.87;;;2.57;;
16998;SDS011;10211;49.476;11.010;2023-03-21T07:27:57;7.00;;;3.50;;
16998;SDS011;10211;49.476;11.010;2023-03-21T07:30:24;9.40;;;3.03;;
16998;SDS011;10211;49.476;11.010;2023-03-21T07:32:51;3.90;;;2.80;;
16998;SDS011;10211;49.476;11.010;2023-03-21T07:35:20;8.27;;;2.50;;
16998;SDS011;10211;49.476;11.010;2023-03-21T07:37:46;4.50;;;2.50;;
16998;SDS011;10211;49.476;11.010;2023-03-21T07:40:13;7.10;;;3.20;;
16998;SDS011;10211;49.476;11.010;2023-03-21T07:42:41;5.33;;;2.97;;
16998;SDS011;10211;49.476;11.010;2023-03-21T07:45:08;3.57;;;2.70;;
16998;SDS011;10211;49.476;11.010;2023-03-21T07:47:39;5.57;;;2.90;;
16998;SDS011;10211;49.476;11.010;2023-03-21T07:50:06;4.00;;;2.97;;
16998;SDS011;10211;49.476;11.010;2023-03-21T07:52:34;4.43;;;3.47;;
16998;SDS011;10211;49.476;11.010;2023-03-21T07:55:01;5.03;;;3.00;;
16998;SDS011;10211;49.476;11.010;2023-03-21T07:57:28;6.67;;;2.87;;
16998;SDS011;10211;49.476;11.010;2023-03-21T07:59:55;4.43;;;2.60;;
16998;SDS011;10211;49.476;11.010;2023-03-21T08:02:21;4.40;;;2.50;;
16998;SDS011;10211;49.476;11.010;2023-03-21T08:04:48;3.90;;;2.37;;
16998;SDS011;10211;49.476;11.010;2023-03-21T08:07:15;7.10;;;2.57;;
16998;SDS011;10211;49.476;11.010;2023-03-21T08:09:43;3.57;;;2.20;;
16998;SDS011;10211;49.476;11.010;2023-03-21T08:12:10;4.20;;;2.42;;
16998;SDS011;10211;49.476;11.010;2023-03-21T08:14:37;2.97;;;2.30;;
16998;SDS011;10211;49.476;11.010;2023-03-21T08:17:04;4.15;;;2.35;;
16998;SDS011;10211;49.476;11.010;2023-03-21T08:19:33;3.78;;;2.50;;
16998;SDS011;10211;49.476;11.010;2023-03-21T08:22:01;7.38;;;2.63;;
16998;SDS011;10211;49.476;11.010;2023-03-21T08:24:29;5.43;;;2.63;;
16998;SDS011;10211;49.476;11.010;2023-03-21T08:26:59;7.00;;;2.25;;
16998;SDS011;10211;49.476;11.010;2023-03-21T08:29:26;8.38;;;2.50;;
16998;SDS011;10211;49.476;11.010;2023-03-21T08:31:52;2.75;;;2.00;;
16998;SDS011;10211;49.476;11.010;2023-03-21T08:34:19;3.38;;;2.08;;
16998;SDS011;10211;49.476;11.010;2023-03-21T08:36:47;5.63;;;2.58;;
16998;SDS011;10211;49.476;11.010;2023-03-21T08:39:13;3.15;;;2.00;;
16998;SDS011;10211;49.476;11.010;2023-03-21T08:41:40;3.80;;;2.03;;
16998;SDS011;10211;49.476;11.010;2023-03-21T08:44:08;4.60;;;2.95;;
16998;SDS011;10211;49.476;11.010;2023-03-21T08:46:35;5.20;;;2.53;;
16998;SDS011;10211;49.476;11.010;2023-03-21T08:49:02;6.53;;;2.63;;
16998;SDS011;10211;49.476;11.010;2023-03-21T08:51:29;4.38;;;2.40;;
16998;SDS011;10211;49.476;11.010;2023-03-21T08:53:57;4.82;;;2.33;;
16998;SDS011;10211;49.476;11.010;2023-03-21T08:56:24;4.65;;;2.60;;
16998;SDS011;10211;49.476;11.010;2023-03-21T08:58:51;7.63;;;5.53;;
16998;SDS011;10211;49.476;11.010;2023-03-21T09:01:19;4.63;;;2.05;;
16998;SDS011;10211;49.476;11.010;2023-03-21T09:03:46;5.18;;;2.03;;
16998;SDS011;10211;49.476;11.010;2023-03-21T09:06:12;5.63;;;2.47;;
16998;SDS011;10211;49.476;11.010;2023-03-21T09:08:40;5.97;;;2.50;;
16998;SDS011;10211;49.476;11.010;2023-03-21T09:11:07;4.07;;;2.30;;
16998;SDS011;10211;49.476;11.010;2023-03-21T09:13:34;2.95;;;1.80;;
16998;SDS011;10211;49.476;11.010;2023-03-21T09:16:01;3.00;;;2.13;;
16998;SDS011;10211;49.476;11.010;2023-03-21T09:18:30;3.03;;;2.22;;
16998;SDS011;10211;49.476;11.010;2023-03-21T09:21:09;5.10;;;2.50;;
16998;SDS011;10211;49.476;11.010;2023-03-21T09:23:37;4.55;;;3.00;;
16998;SDS011;10211;49.476;11.010;2023-03-21T09:26:03;3.47;;;2.38;;
16998;SDS011;10211;49.476;11.010;2023-03-21T09:28:31;5.47;;;2.67;;
16998;SDS011;10211;49.476;11.010;2023-03-21T09:30:59;5.80;;;2.55;;
16998;SDS011;10211;49.476;11.010;2023-03-21T09:33:26;3.28;;;2.45;;
16998;SDS011;10211;49.476;11.010;2023-03-21T09:35:55;4.38;;;2.45;;
16998;SDS011;10211;49.476;11.010;2023-03-21T09:38:24;4.53;;;2.30;;
16998;SDS011;10211;49.476;11.010;2023-03-21T09:40:56;2.22;;;1.92;;
16998;SDS011;10211;49.476;11.010;2023-03-21T09:43:34;3.20;;;1.95;;
16998;SDS011;10211;49.476;11.010;2023-03-21T09:46:09;6.30;;;2.53;;
16998;SDS011;10211;49.476;11.010;2023-03-21T09:48:45;2.75;;;2.20;;
16998;SDS011;10211;49.476;11.010;2023-03-21T09:51:22;3.25;;;2.35;;
16998;SDS011;10211;49.476;11.010;2023-03-21T09:53:53;4.25;;;2.28;;
16998;SDS011;10211;49.476;11.010;2023-03-21T09:56:22;6.15;;;2.28;;
16998;SDS011;10211;49.476;11.010;2023-03-21T09:58:50;4.65;;;2.17;;
16998;SDS011;10211;49.476;11.010;2023-03-21T10:01:23;3.35;;;2.30;;
16998;SDS011;10211;49.476;11.010;2023-03-21T10:03:54;1.42;;;1.27;;
16998;SDS011;10211;49.476;11.010;2023-03-21T10:06:23;2.78;;;1.77;;
16998;SDS011;10211;49.476;11.010;2023-03-21T10:08:54;2.08;;;1.63;;
16998;SDS011;10211;49.476;11.010;2023-03-21T10:11:24;3.38;;;1.42;;
16998;SDS011;10211;49.476;11.010;2023-03-21T10:13:54;2.47;;;1.60;;
16998;SDS011;10211;49.476;11.010;2023-03-21T10:16:25;3.33;;;2.45;;
16998;SDS011;10211;49.476;11.010;2023-03-21T10:18:54;2.88;;;1.90;;
16998;SDS011;10211;49.476;11.010;2023-03-21T10:21:21;3.80;;;2.05;;
16998;SDS011;10211;49.476;11.010;2023-03-21T10:23:52;3.08;;;2.13;;
16998;SDS011;10211;49.476;11.010;2023-03-21T10:26:21;2.85;;;2.00;;
16998;SDS011;10211;49.476;11.010;2023-03-21T10:28:50;3.50;;;2.00;;
16998;SDS011;10211;49.476;11.010;2023-03-21T10:31:18;3.13;;;2.40;;
16998;SDS011;10211;49.476;11.010;2023-03-21T10:33:49;2.78;;;2.28;;
16998;SDS011;10211;49.476;11.010;2023-03-21T10:36:18;2.45;;;2.05;;
16998;SDS011;10211;49.476;11.010;2023-03-21T10:38:51;3.60;;;2.50;;
16998;SDS011;10211;49.476;11.010;2023-03-21T10:41:21;3.65;;;2.22;;
16998;SDS011;10211;49.476;11.010;2023-03-21T10:44:02;1.60;;;1.50;;
16998;SDS011;10211;49.476;11.010;2023-03-21T10:46:30;3.47;;;2.33;;
16998;SDS011;10211;49.476;11.010;2023-03-21T10:48:59;2.53;;;2.17;;
16998;SDS011;10211;49.476;11.010;2023-03-21T10:51:26;3.03;;;1.98;;
16998;SDS011;10211;49.476;11.010;2023-03-21T10:53:58;3.60;;;2.28;;
16998;SDS011;10211;49.476;11.010;2023-03-21T10:56:30;3.67;;;2.53;;
16998;SDS011;10211;49.476;11.010;2023-03-21T10:59:00;4.63;;;2.55;;
16998;SDS011;10211;49.476;11.010;2023-03-21T11:01:28;5.35;;;2.42;;
16998;SDS011;10211;49.476;11.010;2023-03-21T11:04:00;2.92;;;2.35;;
16998;SDS011;10211;49.476;11.010;2023-03-21T11:06:35;3.53;;;2.28;;
16998;SDS011;10211;49.476;11.010;2023-03-21T11:09:06;3.22;;;2.30;;
16998;SDS011;10211;49.476;11.010;2023-03-21T11:11:37;2.38;;;2.17;;
16998;SDS011;10211;49.476;11.010;2023-03-21T11:14:07;2.65;;;2.13;;
16998;SDS011;10211;49.476;11.010;2023-03-21T11:16:50;2.55;;;2.10;;
16998;SDS011;10211;49.476;11.010;2023-03-21T11:19:17;3.03;;;1.92;;
16998;SDS011;10211;49.476;11.010;2023-03-21T11:21:51;2.80;;;1.83;;
16998;SDS011;10211;49.476;11.010;2023-03-21T11:24:19;3.75;;;2.50;;
16998;SDS011;10211;49.476;11.010;2023-03-21T11:26:47;5.75;;;2.28;;
16998;SDS011;10211;49.476;11.010;2023-03-21T11:29:19;2.75;;;2.40;;
16998;SDS011;10211;49.476;11.010;2023-03-21T11:31:51;2.00;;;1.80;;
16998;SDS011;10211;49.476;11.010;2023-03-21T11:34:25;2.28;;;2.08;;
16998;SDS011;10211;49.476;11.010;2023-03-21T11:36:57;4.13;;;2.60;;
16998;SDS011;10211;49.476;11.010;2023-03-21T11:39:36;2.78;;;2.38;;
16998;SDS011;10211;49.476;11.010;2023-03-21T11:42:25;3.22;;;2.47;;
16998;SDS011;10211;49.476;11.010;2023-03-21T11:44:58;3.47;;;2.78;;
16998;SDS011;10211;49.476;11.010;2023-03-21T11:47:27;3.58;;;2.55;;
16998;SDS011;10211;49.476;11.010;2023-03-21T11:49:57;2.88;;;2.53;;
16998;SDS011;10211;49.476;11.010;2023-03-21T11:52:26;4.03;;;3.22;;
16998;SDS011;10211;49.476;11.010;2023-03-21T11:55:12;3.80;;;2.78;;
16998;SDS011;10211;49.476;11.010;2023-03-21T11:57:52;3.28;;;2.70;;
16998;SDS011;10211;49.476;11.010;2023-03-21T12:00:28;3.40;;;3.10;;
16998;SDS011;10211;49.476;11.010;2023-03-21T12:03:10;2.65;;;2.22;;
16998;SDS011;10211;49.476;11.010;2023-03-21T12:05:57;2.67;;;2.00;;
16998;SDS011;10211;49.476;11.010;2023-03-21T12:08:32;2.75;;;2.42;;
16998;SDS011;10211;49.476;11.010;2023-03-21T12:11:07;3.60;;;1.88;;
16998;SDS011;10211;49.476;11.010;2023-03-21T12:13:45;2.22;;;2.00;;
16998;SDS011;10211;49.476;11.010;2023-03-21T12:16:25;2.85;;;1.95;;
16998;SDS011;10211;49.476;11.010;2023-03-21T12:19:00;3.15;;;2.28;;
16998;SDS011;10211;49.476;11.010;2023-03-21T12:21:42;2.97;;;2.10;;
16998;SDS011;10211;49.476;11.010;2023-03-21T12:24:18;2.70;;;2.33;;
16998;SDS011;10211;49.476;11.010;2023-03-21T12:26:51;2.92;;;2.05;;
16998;SDS011;10211;49.476;11.010;2023-03-21T12:29:35;2.92;;;2.28;;
16998;SDS011;10211;49.476;11.010;2023-03-21T12:32:16;4.78;;;2.28;;
16998;SDS011;10211;49.476;11.010;2023-03-21T12:34:57;2.33;;;1.77;;
16998;SDS011;10211;49.476;11.010;2023-03-21T12:37:35;2.45;;;2.03;;
16998;SDS011;10211;49.476;11.010;2023-03-21T12:40:09;3.35;;;2.50;;
16998;SDS011;10211;49.476;11.010;2023-03-21T12:45:47;2.13;;;1.90;;
16998;SDS011;10211;49.476;11.010;2023-03-21T12:48:21;1.92;;;1.73;;
16998;SDS011;10211;49.476;11.010;2023-03-21T12:50:53;2.67;;;1.90;;
16998;SDS011;10211;49.476;11.010;2023-03-21T12:53:34;2.63;;;1.75;;
16998;SDS011;10211;49.476;11.010;2023-03-21T12:56:08;3.13;;;1.77;;
16998;SDS011;10211;49.476;11.010;2023-03-21T12:58:42;3.72;;;2.10;;
16998;SDS011;10211;49.476;11.010;2023-03-21T13:01:13;2.30;;;2.10;;
16998;SDS011;10211;49.476;11.010;2023-03-21T13:03:43;2.83;;;2.17;;
16998;SDS011;10211;49.476;11.010;2023-03-21T13:06:15;2.38;;;2.15;;
16998;SDS011;10211;49.476;11.010;2023-03-21T13:08:44;5.85;;;2.00;;
16998;SDS011;10211;49.476;11.010;2023-03-21T13:11:15;2.00;;;1.73;;
16998;SDS011;10211;49.476;11.010;2023-03-21T13:13:47;2.63;;;1.75;;
16998;SDS011;10211;49.476;11.010;2023-03-21T13:16:19;2.10;;;1.95;;
16998;SDS011;10211;49.476;11.010;2023-03-21T13:18:51;2.65;;;2.08;;
16998;SDS011;10211;49.476;11.010;2023-03-21T13:21:27;2.03;;;1.52;;
16998;SDS011;10211;49.476;11.010;2023-03-21T13:24:03;2.15;;;1.50;;
16998;SDS011;10211;49.476;11.010;2023-03-21T13:26:43;6.25;;;1.23;;
16998;SDS011;10211;49.476;11.010;2023-03-21T13:29:21;2.42;;;1.65;;
16998;SDS011;10211;49.476;11.010;2023-03-21T13:31:49;1.50;;;1.40;;
16998;SDS011;10211;49.476;11.010;2023-03-21T13:34:19;1.30;;;1.20;;
16998;SDS011;10211;49.476;11.010;2023-03-21T13:36:47;2.13;;;1.02;;
16998;SDS011;10211;49.476;11.010;2023-03-21T13:39:16;1.40;;;1.10;;
16998;SDS011;10211;49.476;11.010;2023-03-21T13:41:44;1.97;;;1.50;;
16998;SDS011;10211;49.476;11.010;2023-03-21T13:44:18;1.77;;;1.10;;
16998;SDS011;10211;49.476;11.010;2023-03-21T13:46:58;1.63;;;1.50;;
16998;SDS011;10211;49.476;11.010;2023-03-21T13:49:27;1.50;;;1.07;;
16998;SDS011;10211;49.476;11.010;2023-03-21T13:51:56;4.77;;;1.20;;
16998;SDS011;10211;49.476;11.010;2023-03-21T13:54:44;1.67;;;1.13;;
16998;SDS011;10211;49.476;11.010;2023-03-21T14:00:18;1.83;;;1.30;;
16998;SDS011;10211;49.476;11.010;2023-03-21T14:02:55;2.50;;;1.33;;
16998;SDS011;10211;49.476;11.010;2023-03-21T14:05:25;2.00;;;1.10;;
16998;SDS011;10211;49.476;11.010;2023-03-21T14:07:54;1.50;;;1.20;;
16998;SDS011;10211;49.476;11.010;2023-03-21T14:10:25;1.60;;;1.00;;
16998;SDS011;10211;49.476;11.010;2023-03-21T14:12:56;4.67;;;1.20;;
16998;SDS011;10211;49.476;11.010;2023-03-21T14:15:26;1.43;;;1.10;;
16998;SDS011;10211;49.476;11.010;2023-03-21T14:17:58;1.50;;;1.10;;
16998;SDS011;10211;49.476;11.010;2023-03-21T14:20:28;2.27;;;1.20;;
16998;SDS011;10211;49.476;11.010;2023-03-21T14:22:56;1.10;;;1.00;;
16998;SDS011;10211;49.476;11.010;2023-03-21T14:25:23;2.70;;;1.10;;
16998;SDS011;10211;49.476;11.010;2023-03-21T14:27:58;1.20;;;0.90;;
16998;SDS011;10211;49.476;11.010;2023-03-21T14:30:31;2.03;;;1.10;;
16998;SDS011;10211;49.476;11.010;2023-03-21T14:33:01;1.27;;;1.13;;
16998;SDS011;10211;49.476;11.010;2023-03-21T14:35:33;1.87;;;1.10;;
16998;SDS011;10211;49.476;11.010;2023-03-21T14:38:01;2.30;;;1.40;;
16998;SDS011;10211;49.476;11.010;2023-03-21T14:40:31;2.03;;;1.10;;
16998;SDS011;10211;49.476;11.010;2023-03-21T14:42:59;1.00;;;1.00;;
16998;SDS011;10211;49.476;11.010;2023-03-21T14:45:33;1.70;;;1.40;;
16998;SDS011;10211;49.476;11.010;2023-03-21T14:48:03;1.60;;;1.20;;
16998;SDS011;10211;49.476;11.010;2023-03-21T14:50:33;1.03;;;0.87;;
16998;SDS011;10211;49.476;11.010;2023-03-21T14:53:05;1.23;;;1.10;;
16998;SDS011;10211;49.476;11.010;2023-03-21T14:55:33;1.10;;;0.93;;
16998;SDS011;10211;49.476;11.010;2023-03-21T14:58:09;5.37;;;1.37;;
16998;SDS011;10211;49.476;11.010;2023-03-21T15:00:38;1.80;;;1.33;;